createdAt,value
2022-08-14T00:01:54.397Z,148153.16
2022-08-14T00:04:35.280Z,148115.19
2022-08-14T00:07:11.511Z,148117.66
2022-08-14T00:09:55.741Z,148096.84
2022-08-14T00:12:33.997Z,148078.50
2022-08-14T00:15:22.794Z,148073.63
2022-08-14T00:17:53.073Z,148074.81
2022-08-14T00:20:31.027Z,148050.38
2022-08-14T00:23:16.350Z,148046.69
2022-08-14T00:25:54.052Z,148041.81
2022-08-14T00:28:35.584Z,148029.56
2022-08-14T00:31:05.604Z,148036.91
2022-08-14T00:33:52.211Z,148023.47
2022-08-14T00:36:36.386Z,148011.22
2022-08-14T00:39:18.314Z,147988.00
2022-08-14T00:41:47.002Z,147977.00
2022-08-14T00:44:14.748Z,147992.88
2022-08-14T00:46:49.472Z,147979.41
2022-08-14T00:49:17.877Z,147958.66
2022-08-14T00:51:48.295Z,147951.31
2022-08-14T00:54:21.239Z,147939.09
2022-08-14T00:56:55.615Z,147923.16
2022-08-14T00:59:25.711Z,147920.72
2022-08-14T01:01:56.204Z,147915.84
2022-08-14T01:04:37.650Z,147855.88
2022-08-14T01:07:11.820Z,147898.69
2022-08-14T01:09:41.521Z,147902.38
2022-08-14T01:12:09.361Z,147902.38
2022-08-14T01:14:38.234Z,147886.47
2022-08-14T01:17:08.764Z,147862.03
2022-08-14T01:19:54.893Z,147862.03
2022-08-14T01:22:51.284Z,147865.72
2022-08-14T01:25:20.334Z,147868.13
2022-08-14T01:27:57.316Z,147862.03
2022-08-14T01:30:27.403Z,147854.69
2022-08-14T01:32:54.510Z,147818.00
2022-08-14T01:36:03.760Z,147857.16
2022-08-14T01:38:10.341Z,147852.25
2022-08-14T01:40:41.985Z,147833.91
2022-08-14T01:43:18.953Z,147846.13
2022-08-14T01:45:57.604Z,147810.69
2022-08-14T01:48:37.476Z,147814.31
2022-08-14T01:51:19.551Z,147813.13
2022-08-14T01:53:54.686Z,147808.22
2022-08-14T01:56:39.732Z,147788.69
2022-08-14T01:59:20.921Z,147786.22
2022-08-14T02:01:57.862Z,147774.03
2022-08-14T02:04:55.006Z,147759.31
2022-08-14T02:07:34.162Z,147754.44
2022-08-14T02:10:07.060Z,147756.91
2022-08-14T02:12:34.727Z,147760.59
2022-08-14T02:15:03.045Z,147716.53
2022-08-14T02:17:33.371Z,147744.66
2022-08-14T02:20:00.969Z,147737.38
2022-08-14T02:22:33.169Z,147738.56
2022-08-14T02:25:01.489Z,147664.00
2022-08-14T02:28:24.454Z,147725.13
2022-08-14T02:30:16.483Z,147706.75
2022-08-14T02:32:45.771Z,147693.31
2022-08-14T02:35:21.958Z,147623.66
2022-08-14T02:37:53.535Z,147694.53
2022-08-14T02:40:32.530Z,147671.31
2022-08-14T02:43:02.754Z,147668.88
2022-08-14T02:45:38.615Z,147576.00
2022-08-14T02:49:02.726Z,147649.31
2022-08-14T02:51:01.296Z,147635.84
2022-08-14T02:53:29.900Z,147639.53
2022-08-14T02:56:30.319Z,147626.09
2022-08-14T02:59:08.198Z,147626.09
2022-08-14T03:01:43.803Z,147569.91
2022-08-14T03:04:17.712Z,147599.22
2022-08-14T03:06:57.877Z,147507.59
2022-08-14T03:09:42.380Z,147612.66
2022-08-14T03:12:31.518Z,147673.78
2022-08-14T03:15:03.047Z,147620.00
2022-08-14T03:17:32.076Z,147602.88
2022-08-14T03:20:11.946Z,147576.00
2022-08-14T03:22:42.140Z,147576.00
2022-08-14T03:25:11.361Z,147563.81
2022-08-14T03:27:47.779Z,147573.59
2022-08-14T03:30:15.773Z,147558.94
2022-08-14T03:32:51.470Z,147593.13
2022-08-14T03:35:19.697Z,147583.34
2022-08-14T03:39:10.905Z,147595.59
2022-08-14T03:40:34.227Z,147569.91
2022-08-14T03:43:05.607Z,147583.34
2022-08-14T03:45:35.718Z,147573.59
2022-08-14T03:48:30.237Z,147557.69
2022-08-14T03:50:59.640Z,147522.28
2022-08-14T03:53:28.621Z,147500.28
2022-08-14T03:55:58.965Z,147488.03
2022-08-14T03:58:36.260Z,147463.63
2022-08-14T04:01:06.558Z,147458.72
2022-08-14T04:03:37.211Z,147436.75
2022-08-14T04:06:05.745Z,147436.75
2022-08-14T04:08:37.430Z,147459.94
2022-08-14T04:11:08.041Z,147461.16
2022-08-14T04:13:42.564Z,147473.38
2022-08-14T04:16:13.081Z,147475.84
2022-08-14T04:18:45.733Z,147453.84
2022-08-14T04:21:13.429Z,147444.09
2022-08-14T04:23:42.709Z,147458.72
2022-08-14T04:26:14.791Z,147463.63
2022-08-14T04:29:07.484Z,147431.88
2022-08-14T04:33:10.490Z,147490.53
2022-08-14T04:34:24.012Z,147501.50
2022-08-14T04:37:21.903Z,147467.28
2022-08-14T04:40:08.809Z,147489.28
2022-08-14T04:42:55.414Z,147502.72
2022-08-14T04:45:24.893Z,147503.97
2022-08-14T04:48:12.657Z,147440.41
2022-08-14T04:50:53.973Z,147522.28
2022-08-14T04:53:34.883Z,147527.16
2022-08-14T04:56:03.798Z,147458.72
2022-08-14T04:58:35.273Z,147514.94
2022-08-14T05:01:22.144Z,147556.47
2022-08-14T05:03:49.616Z,147524.72
2022-08-14T05:06:38.273Z,147448.97
2022-08-14T05:09:06.542Z,147541.81
2022-08-14T05:11:36.639Z,147480.72
2022-08-14T05:14:43.411Z,147572.38
2022-08-14T05:16:52.495Z,147607.75
2022-08-14T05:19:29.092Z,147612.66
2022-08-14T05:22:17.081Z,147637.13
2022-08-14T05:24:51.296Z,147670.09
2022-08-14T05:27:23.004Z,147662.75
2022-08-14T05:29:52.994Z,147667.63
2022-08-14T05:32:20.434Z,147670.09
2022-08-14T05:34:47.957Z,147730.00
2022-08-14T05:37:15.451Z,147710.44
2022-08-14T05:39:43.677Z,147810.69
2022-08-14T05:42:22.268Z,147825.34
2022-08-14T05:44:55.428Z,147830.25
2022-08-14T05:47:23.812Z,147888.94
2022-08-14T05:49:51.676Z,147914.56
2022-08-14T05:52:26.360Z,147935.38
2022-08-14T05:55:08.464Z,147928.03
2022-08-14T05:57:48.987Z,148003.91
2022-08-14T06:00:24.362Z,148011.22
2022-08-14T06:02:52.211Z,148033.25
2022-08-14T06:05:23.389Z,148030.81
2022-08-14T06:07:50.944Z,148065.03
2022-08-14T06:10:19.043Z,148112.72
2022-08-14T06:12:55.715Z,148138.44
2022-08-14T06:15:29.687Z,148166.63
2022-08-14T06:17:58.919Z,148200.91
2022-08-14T06:20:28.611Z,148224.13
2022-08-14T06:22:57.880Z,148268.16
2022-08-14T06:25:27.022Z,148312.22
2022-08-14T06:27:55.814Z,148335.50
2022-08-14T06:30:30.458Z,148371.03
2022-08-14T06:33:15.746Z,148397.97
2022-08-14T06:35:43.781Z,148432.22
2022-08-14T06:38:19.129Z,148471.44
2022-08-14T06:40:47.727Z,148508.16
2022-08-14T06:43:16.962Z,148543.69
2022-08-14T06:45:50.231Z,148565.72
2022-08-14T06:48:23.872Z,148601.25
2022-08-14T06:50:53.890Z,148635.53
2022-08-14T06:53:22.236Z,148662.47
2022-08-14T06:56:00.754Z,148686.97
2022-08-14T06:58:31.562Z,148691.91
2022-08-14T07:01:25.019Z,148718.81
2022-08-14T07:04:23.198Z,148770.38
2022-08-14T07:06:54.803Z,148810.75
2022-08-14T07:09:43.820Z,148763.00
2022-08-14T07:12:52.034Z,148858.56
2022-08-14T07:15:04.707Z,148875.75
2022-08-14T07:17:34.483Z,148829.13
2022-08-14T07:20:04.954Z,148895.34
2022-08-14T07:22:50.125Z,148951.75
2022-08-14T07:25:22.418Z,148941.94
2022-08-14T07:28:00.675Z,148892.88
2022-08-14T07:30:33.896Z,148987.31
2022-08-14T07:33:03.503Z,148998.31
2022-08-14T07:35:43.051Z,149042.47
2022-08-14T07:38:21.484Z,149094.00
2022-08-14T07:40:53.060Z,149097.69
2022-08-14T07:43:21.736Z,149113.63
2022-08-14T07:45:50.791Z,149141.81
2022-08-14T07:48:18.011Z,149091.53
2022-08-14T07:50:52.055Z,149160.22
2022-08-14T07:53:19.753Z,149128.31
2022-08-14T07:55:47.225Z,149223.97
2022-08-14T07:58:38.808Z,149226.44
2022-08-14T08:01:19.172Z,149258.41
2022-08-14T08:03:47.771Z,149270.63
2022-08-14T08:06:19.007Z,149302.53
2022-08-14T08:09:01.087Z,149318.50
2022-08-14T08:11:37.423Z,149221.56
2022-08-14T08:14:10.820Z,149341.81
2022-08-14T08:16:46.394Z,149345.50
2022-08-14T08:19:14.337Z,149397.00
2022-08-14T08:21:43.536Z,149432.66
2022-08-14T08:24:11.160Z,149464.56
2022-08-14T08:26:39.675Z,149486.63
2022-08-14T08:29:07.931Z,149484.19
2022-08-14T08:31:48.926Z,149523.44
2022-08-14T08:34:20.791Z,149479.28
2022-08-14T08:36:51.685Z,149540.63
2022-08-14T08:39:21.880Z,149570.06
2022-08-14T08:41:50.747Z,149584.88
2022-08-14T08:44:31.649Z,149589.78
2022-08-14T08:47:06.458Z,149602.03
2022-08-14T08:49:48.302Z,149552.91
2022-08-14T08:52:29.105Z,149605.72
2022-08-14T08:55:00.732Z,149595.91
2022-08-14T08:57:35.809Z,149577.50
2022-08-14T09:00:25.393Z,149600.81
2022-08-14T09:03:04.068Z,149606.94
2022-08-14T09:05:33.341Z,149633.94
2022-08-14T09:08:31.491Z,149656.06
2022-08-14T09:11:19.233Z,149660.97
2022-08-14T09:13:51.440Z,149663.44
2022-08-14T09:16:21.160Z,149703.91
2022-08-14T09:18:48.923Z,149701.50
2022-08-14T09:21:16.475Z,149683.06
2022-08-14T09:24:26.299Z,149703.91
2022-08-14T09:26:32.584Z,149734.69
2022-08-14T09:29:00.589Z,149739.59
2022-08-14T09:31:42.529Z,149722.34
2022-08-14T09:34:58.285Z,149744.50
2022-08-14T09:38:00.153Z,149749.41
2022-08-14T09:40:59.083Z,149805.94
2022-08-14T09:43:51.196Z,149772.72
2022-08-14T09:46:21.206Z,149793.63
2022-08-14T09:48:58.835Z,149867.31
2022-08-14T09:51:32.996Z,149869.75
2022-08-14T09:54:18.400Z,149896.81
2022-08-14T09:56:56.957Z,149922.63
2022-08-14T09:59:28.425Z,149953.38
2022-08-14T10:02:01.064Z,149945.97
2022-08-14T10:04:34.624Z,149964.41
2022-08-14T10:07:05.234Z,149992.66
2022-08-14T10:09:34.615Z,149990.22
2022-08-14T10:12:04.795Z,149985.31
2022-08-14T10:14:36.648Z,149953.38
2022-08-14T10:17:08.716Z,149977.91
2022-08-14T10:19:48.087Z,150017.22
2022-08-14T10:23:15.110Z,149987.75
2022-08-14T10:25:14.120Z,149973.00
2022-08-14T10:27:46.439Z,150063.97
2022-08-14T10:30:22.407Z,150047.97
2022-08-14T10:32:52.444Z,150120.50
2022-08-14T10:35:23.059Z,150068.91
2022-08-14T10:37:52.481Z,150103.28
2022-08-14T10:40:43.434Z,150136.44
2022-08-14T10:43:24.069Z,150157.38
2022-08-14T10:46:59.058Z,150142.63
2022-08-14T10:49:02.617Z,150110.66
2022-08-14T10:51:35.300Z,150016.00
2022-08-14T10:54:17.011Z,150129.09
2022-08-14T10:56:57.224Z,150142.63
2022-08-14T10:59:30.780Z,150211.50
2022-08-14T11:02:03.381Z,150190.59
2022-08-14T11:04:31.258Z,150132.81
2022-08-14T11:06:59.172Z,150095.94
2022-08-14T11:09:31.723Z,150039.38
2022-08-14T11:12:33.103Z,150007.38
2022-08-14T11:15:02.155Z,150038.16
2022-08-14T11:17:36.031Z,150094.66
2022-08-14T11:20:07.075Z,150095.94
2022-08-14T11:22:56.320Z,150093.47
2022-08-14T11:25:43.521Z,150106.97
2022-08-14T11:28:19.053Z,150189.38
2022-08-14T11:30:54.213Z,150110.66
2022-08-14T11:33:24.453Z,150066.41
2022-08-14T11:35:51.884Z,150131.53
2022-08-14T11:38:21.621Z,150236.06
2022-08-14T11:40:48.905Z,150297.50
2022-08-14T11:43:16.339Z,150440.19
2022-08-14T11:45:48.514Z,150432.84
2022-08-14T11:49:02.294Z,150559.53
2022-08-14T11:51:14.449Z,150633.38
2022-08-14T11:53:51.353Z,150720.75
2022-08-14T11:56:18.698Z,150696.16
2022-08-14T11:58:54.057Z,150699.81
2022-08-14T12:01:28.489Z,150719.53
2022-08-14T12:04:00.999Z,150686.31
2022-08-14T12:06:38.394Z,150761.41
2022-08-14T12:09:08.264Z,150757.69
2022-08-14T12:11:43.810Z,150802.03
2022-08-14T12:14:31.039Z,150688.75
2022-08-14T12:17:02.165Z,150570.59
2022-08-14T12:19:33.574Z,150635.88
2022-08-14T12:22:02.691Z,150560.75
2022-08-14T12:24:36.353Z,150469.78
2022-08-14T12:27:04.390Z,150440.19
2022-08-14T12:29:31.899Z,150398.38
2022-08-14T12:32:03.784Z,150393.47
2022-08-14T12:34:35.163Z,150445.09
2022-08-14T12:37:07.953Z,150447.59
2022-08-14T12:39:39.855Z,150499.28
2022-08-14T12:42:08.084Z,150432.84
2022-08-14T12:44:38.342Z,150400.88
2022-08-14T12:47:15.143Z,150391.03
2022-08-14T12:49:53.427Z,150399.59
2022-08-14T12:52:47.280Z,150371.31
2022-08-14T12:55:32.687Z,150354.16
2022-08-14T12:58:28.832Z,150304.91
2022-08-14T13:01:17.271Z,150408.22
2022-08-14T13:03:51.840Z,150467.25
2022-08-14T13:06:20.366Z,150485.75
2022-08-14T13:08:53.317Z,150420.53
2022-08-14T13:11:23.915Z,150292.59
2022-08-14T13:13:58.267Z,150391.03
2022-08-14T13:16:37.989Z,150484.53
2022-08-14T13:19:11.655Z,150565.66
2022-08-14T13:22:05.334Z,150592.75
2022-08-14T13:24:27.686Z,150560.75
2022-08-14T13:26:58.368Z,150574.28
2022-08-14T13:29:29.735Z,150605.06
2022-08-14T13:31:58.708Z,150511.59
2022-08-14T13:34:28.237Z,150581.69
2022-08-14T13:36:59.397Z,150565.66
2022-08-14T13:39:36.302Z,150653.06
2022-08-14T13:42:13.242Z,150681.34
2022-08-14T13:44:42.832Z,150629.69
2022-08-14T13:47:12.046Z,150618.63
2022-08-14T13:49:58.137Z,150605.06
2022-08-14T13:52:59.116Z,150582.91
2022-08-14T13:55:17.981Z,150627.25
2022-08-14T13:57:49.548Z,150614.94
2022-08-14T14:00:21.777Z,150607.50
2022-08-14T14:03:00.405Z,150613.72
2022-08-14T14:05:53.345Z,150666.59
2022-08-14T14:08:19.123Z,150661.69
2022-08-14T14:11:04.051Z,150703.50
2022-08-14T14:13:32.005Z,150568.16
2022-08-14T14:16:02.249Z,150642.00
2022-08-14T14:18:34.878Z,150605.06
2022-08-14T14:21:03.116Z,150671.50
2022-08-14T14:23:31.143Z,150731.78
2022-08-14T14:26:00.097Z,150760.19
2022-08-14T14:28:34.233Z,150803.22
2022-08-14T14:31:06.078Z,150826.63
2022-08-14T14:33:47.092Z,150848.78
2022-08-14T14:36:20.985Z,150847.50
2022-08-14T14:39:01.130Z,150829.03
2022-08-14T14:41:38.088Z,150831.53
2022-08-14T14:44:13.530Z,150879.56
2022-08-14T14:46:50.547Z,150846.28
2022-08-14T14:49:21.865Z,150864.75
2022-08-14T14:51:51.459Z,150873.38
2022-08-14T14:54:30.313Z,150947.28
2022-08-14T14:57:04.013Z,150954.66
2022-08-14T14:59:37.452Z,150910.34
2022-08-14T15:02:07.947Z,150905.41
2022-08-14T15:04:37.977Z,150865.97
2022-08-14T15:07:06.309Z,150958.31
2022-08-14T15:09:34.115Z,150998.97
2022-08-14T15:12:16.002Z,150947.28
2022-08-14T15:14:54.948Z,150978.06
2022-08-14T15:17:28.485Z,150900.50
2022-08-14T15:20:07.693Z,150783.56
2022-08-14T15:22:35.615Z,150757.69
2022-08-14T15:25:03.093Z,150740.41
2022-08-14T15:27:31.490Z,150902.94
2022-08-14T15:29:59.430Z,151033.50
2022-08-14T15:32:26.667Z,151051.97
2022-08-14T15:34:57.894Z,151122.13
2022-08-14T15:37:24.934Z,151201.00
2022-08-14T15:40:00.455Z,151220.69
2022-08-14T15:42:30.269Z,151168.97
2022-08-14T15:45:01.267Z,151156.66
2022-08-14T15:47:31.233Z,151099.97
2022-08-14T15:50:01.009Z,151240.38
2022-08-14T15:52:35.623Z,151335.28
2022-08-14T15:55:07.957Z,151308.19
2022-08-14T15:57:36.835Z,151302.03
2022-08-14T16:00:40.608Z,151445.00
2022-08-14T16:03:14.231Z,151479.47
2022-08-14T16:05:46.027Z,151610.13
2022-08-14T16:08:29.256Z,151690.31
2022-08-14T16:11:03.800Z,151732.22
2022-08-14T16:13:41.383Z,151734.66
2022-08-14T16:16:47.218Z,151927.13
2022-08-14T16:19:19.129Z,151911.13
2022-08-14T16:22:02.164Z,152185.00
2022-08-14T16:25:00.456Z,152125.78
2022-08-14T16:27:37.051Z,152299.75
2022-08-14T16:30:20.882Z,152357.81
2022-08-14T16:32:55.774Z,152413.34
2022-08-14T16:35:42.829Z,152180.06
2022-08-14T16:38:19.702Z,152409.63
2022-08-14T16:41:22.989Z,152298.53
2022-08-14T16:43:54.016Z,152218.31
2022-08-14T16:46:28.633Z,151951.75
2022-08-14T16:48:58.744Z,151713.75
2022-08-14T16:51:31.030Z,151537.47
2022-08-14T16:54:34.591Z,151523.91
2022-08-14T16:57:12.639Z,151425.25
2022-08-14T16:59:52.304Z,151533.75
2022-08-14T17:02:42.092Z,151684.13
2022-08-14T17:05:26.851Z,151617.53
2022-08-14T17:08:32.080Z,151716.19
2022-08-14T17:11:11.922Z,151486.88
2022-08-14T17:13:59.854Z,151339.00
2022-08-14T17:16:37.550Z,151173.91
2022-08-14T17:19:13.606Z,150954.66
2022-08-14T17:21:47.407Z,150851.22
2022-08-14T17:24:51.540Z,150856.13
2022-08-14T17:27:07.250Z,150713.34
2022-08-14T17:29:54.774Z,150680.13
2022-08-14T17:32:29.750Z,150627.25
2022-08-14T17:35:16.873Z,150656.75
2022-08-14T17:37:46.183Z,150745.38
2022-08-14T17:40:19.779Z,150733.06
2022-08-14T17:42:51.613Z,150639.53
2022-08-14T17:45:45.358Z,150548.47
2022-08-14T17:49:14.753Z,150510.31
2022-08-14T17:51:24.063Z,150484.53
2022-08-14T17:54:02.363Z,150435.28
2022-08-14T17:56:32.499Z,150397.16
2022-08-14T17:59:05.633Z,150376.25
2022-08-14T18:01:37.358Z,150282.78
2022-08-14T18:04:24.524Z,150252.03
2022-08-14T18:07:09.064Z,150290.16
2022-08-14T18:09:58.769Z,150263.13
2022-08-14T18:12:36.865Z,150211.50
2022-08-14T18:15:17.479Z,150186.88
2022-08-14T18:17:52.703Z,150167.19
2022-08-14T18:21:24.306Z,150113.09
2022-08-14T18:23:13.745Z,150072.53
2022-08-14T18:25:48.229Z,150039.38
2022-08-14T18:28:51.022Z,150017.22
2022-08-14T18:31:21.299Z,149950.88
2022-08-14T18:34:05.923Z,149909.13
2022-08-14T18:36:57.033Z,149882.03
2022-08-14T18:39:30.052Z,149845.19
2022-08-14T18:42:23.664Z,149808.34
2022-08-14T18:44:52.699Z,149774.00
2022-08-14T18:47:24.261Z,149746.97
2022-08-14T18:50:00.904Z,149734.69
2022-08-14T18:52:39.608Z,149723.59
2022-08-14T18:55:15.875Z,149705.19
2022-08-14T18:57:57.980Z,149719.91
2022-08-14T19:00:32.072Z,149658.53
2022-08-14T19:03:04.220Z,149599.59
2022-08-14T19:05:37.355Z,149604.50
2022-08-14T19:08:21.982Z,149584.88
2022-08-14T19:11:04.230Z,149579.97
2022-08-14T19:13:48.685Z,149528.34
2022-08-14T19:16:23.594Z,149548.00
2022-08-14T19:19:00.581Z,149517.31
2022-08-14T19:21:43.545Z,149484.19
2022-08-14T19:24:27.777Z,149491.53
2022-08-14T19:27:16.721Z,149469.47
2022-08-14T19:29:47.884Z,149411.72
2022-08-14T19:32:38.945Z,149373.72
2022-08-14T19:35:49.982Z,149341.81
2022-08-14T19:38:47.922Z,149327.09
2022-08-14T19:41:17.760Z,149295.19
2022-08-14T19:43:55.276Z,149230.16
2022-08-14T19:46:39.196Z,149263.31
2022-08-14T19:49:23.360Z,149238.69
2022-08-14T19:52:04.443Z,149198.25
2022-08-14T19:54:44.829Z,149204.38
2022-08-14T19:57:30.182Z,149198.25
2022-08-14T20:00:28.255Z,149174.97
2022-08-14T20:03:13.522Z,149143.06
2022-08-14T20:05:46.813Z,149135.69
2022-08-14T20:10:59.612Z,149189.66
2022-08-14T20:11:19.108Z,149159.00
2022-08-14T20:14:23.695Z,149112.41
2022-08-14T20:17:06.092Z,149094.00
2022-08-14T20:19:37.298Z,149086.63
2022-08-14T20:22:35.403Z,149106.28
2022-08-14T20:25:10.980Z,149089.09
2022-08-14T20:27:40.828Z,149078.03
2022-08-14T20:30:29.569Z,149084.19
2022-08-14T20:33:11.052Z,149064.56
2022-08-14T20:35:38.577Z,149069.44
2022-08-14T20:38:29.517Z,149100.13
2022-08-14T20:41:06.866Z,149070.66
2022-08-14T20:43:58.604Z,149053.50
2022-08-14T20:46:33.649Z,149048.59
2022-08-14T20:49:16.035Z,149030.19
2022-08-14T20:51:58.690Z,149031.41
2022-08-14T20:54:34.736Z,149027.78
2022-08-14T20:57:09.302Z,149014.28
2022-08-14T20:59:45.509Z,149002.00
2022-08-14T21:02:34.550Z,149031.41
2022-08-14T21:05:16.489Z,149005.69
2022-08-14T21:07:50.702Z,148954.22
2022-08-14T21:10:36.100Z,148927.25
2022-08-14T21:14:17.804Z,148897.75
2022-08-14T21:16:03.372Z,148873.28
2022-08-14T21:18:34.898Z,148840.19
2022-08-14T21:21:07.597Z,148813.22
2022-08-14T21:23:53.738Z,148796.06
2022-08-14T21:26:52.724Z,148786.25
2022-08-14T21:29:13.424Z,148684.53
2022-08-14T21:31:41.587Z,148760.50
2022-08-14T21:34:27.084Z,148748.28
2022-08-14T21:36:58.801Z,148733.59
2022-08-14T21:39:25.848Z,148728.72
2022-08-14T21:41:58.825Z,148726.25
2022-08-14T21:44:42.962Z,148718.81
2022-08-14T21:47:12.945Z,148711.50
2022-08-14T21:49:43.150Z,148709.03
2022-08-14T21:52:49.890Z,148672.28
2022-08-14T21:55:10.457Z,148587.78
2022-08-14T21:58:03.803Z,148660.06
2022-08-14T22:00:37.440Z,148647.78
2022-08-14T22:03:10.729Z,148644.13
2022-08-14T22:05:39.323Z,148598.78
2022-08-14T22:08:12.100Z,148570.63
2022-08-14T22:10:46.699Z,148611.06
2022-08-14T22:13:16.959Z,148591.47
2022-08-14T22:15:49.625Z,148582.91
2022-08-14T22:18:21.179Z,148589.00
2022-08-14T22:20:53.617Z,148582.91
2022-08-14T22:23:23.113Z,148557.16
2022-08-14T22:25:51.190Z,148562.06
2022-08-14T22:28:25.561Z,148543.69
2022-08-14T22:30:55.138Z,148520.38
2022-08-14T22:33:31.161Z,148531.41
2022-08-14T22:36:00.761Z,148448.13
2022-08-14T22:38:37.740Z,148513.06
2022-08-14T22:41:25.275Z,148514.28
2022-08-14T22:43:59.081Z,148499.59
2022-08-14T22:46:27.122Z,148499.59
2022-08-14T22:48:55.513Z,148493.44
2022-08-14T22:51:26.042Z,148466.50
2022-08-14T22:53:58.186Z,148428.56
2022-08-14T22:56:30.103Z,148419.97
2022-08-14T22:59:00.326Z,148415.09
2022-08-14T23:01:57.024Z,148363.69
2022-08-14T23:04:35.060Z,148439.59
2022-08-14T23:07:22.529Z,148456.69
2022-08-14T23:09:57.521Z,148444.50
2022-08-14T23:12:29.715Z,148426.13
2022-08-14T23:14:59.251Z,148429.75
2022-08-14T23:17:39.102Z,148437.13
2022-08-14T23:20:19.223Z,148462.84
2022-08-14T23:22:50.483Z,148422.44
2022-08-14T23:25:50.014Z,148426.13
2022-08-14T23:28:34.881Z,148422.44
2022-08-14T23:30:55.582Z,148400.41
2022-08-14T23:33:22.616Z,148407.75
2022-08-14T23:35:59.469Z,148395.50
2022-08-14T23:38:30.925Z,148395.50
2022-08-14T23:41:00.820Z,148324.50
2022-08-14T23:43:31.212Z,148378.34
2022-08-14T23:45:58.849Z,148388.16
2022-08-14T23:48:28.308Z,148363.69
2022-08-14T23:50:56.252Z,148357.56
2022-08-14T23:53:47.471Z,148353.91
2022-08-14T23:56:31.760Z,148336.69
2022-08-14T23:59:01.682Z,148345.28
